Time;durP1;ratioP1;P1;durP2;ratioP2;P2;SDS_P1;SDS_P2;PMS_P1;PMS_P2;Temp;Humidity;BMP_temperature;BMP_pressure;BME280_temperature;BME280_humidity;BME280_pressure;Samples;Min_cycle;Max_cycle;Signal;HPM_P1;HPM_P2
2021/08/31 00:00:26;;;;;;;29.20;23.65;;;;;;;20.32;78.49;99457.38;1741181;81;21414;-72
2021/08/31 00:02:52;;;;;;;29.35;23.52;;;;;;;20.29;78.43;99455.13;1764937;80;21044;-71
2021/08/31 00:05:19;;;;;;;27.70;21.68;;;;;;;20.29;78.43;99457.80;1766062;81;21795;-71
2021/08/31 00:07:46;;;;;;;27.98;23.30;;;;;;;20.28;78.45;99462.34;1763291;81;21066;-72
2021/08/31 00:10:13;;;;;;;28.60;22.82;;;;;;;20.28;78.42;99469.56;1769584;80;21051;-71
2021/08/31 00:12:41;;;;;;;29.12;22.62;;;;;;;;;;1765775;80;21510;-71
2021/08/31 00:15:10;;;;;;;28.10;23.18;;;;;;;20.28;78.40;99468.23;1765507;80;20959;-71
2021/08/31 00:17:37;;;;;;;26.37;22.45;;;;;;;20.28;78.41;99462.86;1764971;81;22573;-71
2021/08/31 00:20:07;;;;;;;27.17;23.62;;;;;;;20.31;78.38;99457.08;1765804;81;20996;-72
2021/08/31 00:22:38;;;;;;;27.98;23.77;;;;;;;20.31;78.35;99457.08;1760759;79;21016;-71
2021/08/31 00:25:06;;;;;;;26.00;22.10;;;;;;;20.32;78.32;99455.22;1766117;81;20984;-71
2021/08/31 00:27:34;;;;;;;30.02;23.22;;;;;;;20.30;78.33;99455.43;1765538;81;21495;-71
2021/08/31 00:30:00;;;;;;;32.83;26.05;;;;;;;20.27;78.32;99456.67;1766121;81;21777;-71
2021/08/31 00:32:27;;;;;;;34.15;25.85;;;;;;;20.26;78.30;99456.34;1768499;80;21039;-73
2021/08/31 00:34:54;;;;;;;29.32;24.23;;;;;;;20.26;78.29;99456.86;1787614;80;21540;-71
2021/08/31 00:37:20;;;;;;;30.68;25.68;;;;;;;20.26;78.38;99448.81;1762405;81;21086;-71
2021/08/31 00:39:48;;;;;;;34.08;26.75;;;;;;;20.25;78.40;99455.21;1766528;80;20965;-72
2021/08/31 00:42:15;;;;;;;33.67;29.02;;;;;;;20.26;78.41;99460.36;1767994;80;21465;-72
2021/08/31 00:44:42;;;;;;;31.42;27.32;;;;;;;20.27;78.28;99455.86;1779255;80;20965;-72
2021/08/31 00:47:09;;;;;;;33.45;27.48;;;;;;;20.25;78.23;99457.38;1766444;80;20943;-72
2021/08/31 00:49:36;;;;;;;36.35;28.98;;;;;;;20.26;78.17;99452.31;1766432;80;21122;-72
2021/08/31 00:52:03;;;;;;;35.83;29.70;;;;;;;20.28;78.13;99456.16;1764230;80;21387;-72
2021/08/31 00:54:30;;;;;;;35.83;29.02;;;;;;;20.28;78.12;99456.98;1766378;81;22186;-71
2021/08/31 00:57:03;;;;;;;36.08;29.85;;;;;;;20.29;78.13;99457.28;1765964;81;20996;-71
2021/08/31 00:59:30;;;;;;;36.53;29.32;;;;;;;20.29;78.07;99461.83;1766739;80;21012;-72
2021/08/31 01:01:57;;;;;;;37.55;30.25;;;;;;;20.27;78.08;99467.92;1766441;81;21442;-72
2021/08/31 01:04:26;;;;;;;33.45;29.18;;;;;;;20.29;78.06;99473.38;1765207;81;21008;-72
2021/08/31 01:06:53;;;;;;;36.03;29.18;;;;;;;20.29;78.04;99462.66;1804579;78;21856;-72
2021/08/31 01:09:21;;;;;;;36.93;30.25;;;;;;;20.29;78.03;99471.22;1762513;80;21032;-71
2021/08/31 01:11:51;;;;;;;41.75;31.17;;;;;;;20.28;78.01;99472.25;1780024;79;20971;-71
2021/08/31 01:14:19;;;;;;;41.40;30.43;;;;;;;20.25;78.06;99471.30;1780778;80;21412;-72
2021/08/31 01:16:47;;;;;;;39.58;32.00;;;;;;;20.22;78.11;99475.74;1773909;80;20940;-71
2021/08/31 01:19:14;;;;;;;41.02;31.20;;;;;;;20.18;78.18;99466.47;1822692;78;22480;-72
2021/08/31 01:21:42;;;;;;;41.15;32.23;;;;;;;20.14;78.25;99461.20;1782781;79;21502;-72
2021/08/31 01:24:09;;;;;;;41.68;32.75;;;;;;;20.12;78.35;99459.24;1776733;80;21046;-72
2021/08/31 01:26:35;;;;;;;44.60;33.10;;;;;;;20.11;78.38;99464.30;1773854;80;20981;-71
2021/08/31 01:29:03;;;;;;;39.80;29.92;;;;;;;20.10;78.40;99461.31;1766572;80;21067;-77
2021/08/31 01:31:30;;;;;;;40.05;30.60;;;;;;;20.07;78.54;99465.72;1762123;80;22680;-72
2021/08/31 01:33:57;;;;;;;40.85;31.85;;;;;;;20.02;78.62;99465.02;1756495;81;21383;-71
2021/08/31 01:36:25;;;;;;;37.48;30.50;;;;;;;20.00;78.69;99459.03;1765539;80;20984;-71
2021/08/31 01:38:55;;;;;;;44.48;32.40;;;;;;;19.99;78.71;99468.94;1765475;81;21514;-71
2021/08/31 01:41:23;;;;;;;39.83;30.68;;;;;;;19.97;78.78;99466.13;1770701;80;21064;-72
2021/08/31 01:43:51;;;;;;;45.48;31.23;;;;;;;19.95;78.86;99474.38;1768049;80;21866;-72
2021/08/31 01:46:18;;;;;;;42.08;31.40;;;;;;;19.93;78.88;99479.64;1772082;80;20961;-72
2021/08/31 01:48:45;;;;;;;42.95;29.92;;;;;;;19.86;78.97;99473.44;1766208;81;21419;-72
2021/08/31 01:51:12;;;;;;;43.30;30.50;;;;;;;19.81;79.11;99473.23;1766559;80;20989;-71
2021/08/31 01:53:40;;;;;;;45.23;29.85;;;;;;;19.78;79.18;99478.46;1765844;80;21328;-71
2021/08/31 01:56:06;;;;;;;44.90;30.37;;;;;;;19.71;79.25;99478.98;1765093;80;21747;-71
2021/08/31 01:58:33;;;;;;;42.65;29.52;;;;;;;19.67;79.34;99471.02;1757389;80;20993;-71
2021/08/31 02:01:00;;;;;;;39.35;28.83;;;;;;;19.67;79.42;99472.36;1768668;80;21008;-72
2021/08/31 02:03:27;;;;;;;42.23;30.05;;;;;;;19.70;79.42;99479.50;1765269;81;21387;-71
2021/08/31 02:05:55;;;;;;;37.78;27.40;;;;;;;19.72;79.37;99488.16;1765346;81;20992;-72
2021/08/31 02:08:22;;;;;;;37.90;27.20;;;;;;;19.70;79.32;99476.82;1766258;81;21815;-72
2021/08/31 02:10:48;;;;;;;40.85;30.32;;;;;;;19.68;79.34;99478.03;1762755;81;20949;-72
2021/08/31 02:13:15;;;;;;;47.35;29.00;;;;;;;19.63;79.37;99474.63;1766474;80;20996;-72
2021/08/31 02:15:42;;;;;;;37.78;27.10;;;;;;;19.63;79.36;99479.98;1765397;81;20980;-72
2021/08/31 02:18:09;;;;;;;39.95;27.85;;;;;;;19.63;79.36;99478.65;1796073;78;20936;-72
2021/08/31 02:20:36;;;;;;;36.80;27.40;;;;;;;19.61;79.25;99483.91;1790027;80;21817;-71
2021/08/31 02:23:04;;;;;;;40.75;28.20;;;;;;;19.58;79.27;99482.44;1766610;80;21506;-72
2021/08/31 02:25:31;;;;;;;37.25;25.40;;;;;;;19.55;79.15;99482.81;1779509;80;21012;-71
2021/08/31 02:27:58;;;;;;;39.80;26.65;;;;;;;19.48;79.06;99492.67;1771121;80;21431;-71
2021/08/31 02:30:25;;;;;;;41.05;28.00;;;;;;;19.38;79.07;99490.89;1764432;80;21416;-72
2021/08/31 02:32:52;;;;;;;39.42;26.02;;;;;;;19.32;79.15;99488.52;1765743;80;21869;-71
2021/08/31 02:35:19;;;;;;;33.08;23.12;;;;;;;19.31;79.17;99492.73;1764296;81;20989;-71
2021/08/31 02:37:48;;;;;;;45.08;28.00;;;;;;;19.27;79.05;99496.30;1764899;81;21558;-71
2021/08/31 02:40:15;;;;;;;38.35;24.30;;;;;;;19.20;79.07;99497.30;1764094;80;20989;-72
2021/08/31 02:42:42;;;;;;;42.13;25.92;;;;;;;19.14;79.17;99500.27;1770023;80;21032;-72
2021/08/31 02:45:10;;;;;;;38.25;24.60;;;;;;;19.11;79.18;99498.82;1777161;80;21811;-72
2021/08/31 02:47:37;;;;;;;36.73;23.95;;;;;;;19.10;79.19;99495.80;1762229;80;21000;-71
2021/08/31 02:50:06;;;;;;;39.38;23.77;;;;;;;19.04;79.15;99498.47;1766035;81;21043;-72
2021/08/31 02:52:33;;;;;;;37.15;22.40;;;;;;;18.97;79.18;99501.61;1795088;78;21000;-71
2021/08/31 02:55:00;;;;;;;37.38;23.57;;;;;;;18.92;79.24;99498.72;1793275;80;20944;-71
2021/08/31 02:57:27;;;;;;;35.13;23.15;;;;;;;18.86;79.22;99502.48;1777904;80;21814;-72
2021/08/31 02:59:54;;;;;;;34.60;23.20;;;;;;;18.79;79.32;99506.13;1773776;80;21066;-71
2021/08/31 03:02:21;;;;;;;33.08;21.65;;;;;;;18.75;79.42;99512.39;1780512;80;21076;-72
2021/08/31 03:04:47;;;;;;;34.33;22.13;;;;;;;18.71;79.51;99508.95;1780594;80;21135;-71
2021/08/31 03:07:15;;;;;;;38.30;23.40;;;;;;;18.67;79.53;99515.20;1780028;79;21070;-72
2021/08/31 03:09:42;;;;;;;35.10;23.30;;;;;;;18.62;79.51;99512.25;1774018;80;21858;-72
2021/08/31 03:12:10;;;;;;;34.90;23.77;;;;;;;18.58;79.59;99515.83;1826340;78;20984;-71
2021/08/31 03:14:38;;;;;;;31.90;21.20;;;;;;;18.60;79.63;99519.64;1794075;78;21191;-71
2021/08/31 03:17:06;;;;;;;32.90;23.83;;;;;;;18.62;79.64;99528.30;1793015;80;21781;-72
2021/08/31 03:19:33;;;;;;;37.05;23.80;;;;;;;18.60;79.55;99532.50;1798956;78;20991;-72
2021/08/31 03:22:02;;;;;;;35.70;23.00;;;;;;;18.57;79.59;99533.41;1826416;78;21815;-72
2021/08/31 03:24:30;;;;;;;35.40;24.02;;;;;;;18.55;79.63;99530.94;1811958;78;21420;-72
2021/08/31 03:26:57;;;;;;;32.33;22.40;;;;;;;18.49;79.76;99534.89;1799921;78;20956;-72
2021/08/31 03:29:27;;;;;;;34.98;23.67;;;;;;;18.46;79.83;99540.12;1795128;78;20969;-71
2021/08/31 03:31:54;;;;;;;32.50;21.20;;;;;;;18.45;79.88;99541.14;1732463;80;21077;-71
2021/08/31 03:34:21;;;;;;;32.03;21.90;;;;;;;18.44;79.89;99531.47;1759109;81;21682;-72
2021/08/31 03:36:50;;;;;;;30.92;22.13;;;;;;;18.40;79.95;99542.22;1793229;80;21397;-72
2021/08/31 03:39:17;;;;;;;33.98;22.55;;;;;;;18.38;79.99;99547.45;1777189;80;20938;-71
2021/08/31 03:41:44;;;;;;;31.12;22.40;;;;;;;18.35;80.07;99547.84;1781795;80;20997;-71
2021/08/31 03:44:12;;;;;;;28.35;18.92;;;;;;;18.31;80.11;99550.87;1750602;81;21454;-72
2021/08/31 03:46:38;;;;;;;31.87;21.85;;;;;;;18.29;80.23;99554.25;1786739;79;22288;-72
2021/08/31 03:49:06;;;;;;;29.82;20.72;;;;;;;18.27;80.27;99558.15;1761417;81;20993;-71
2021/08/31 03:51:32;;;;;;;33.42;22.73;;;;;;;18.23;80.28;99564.36;1781806;80;20987;-72
2021/08/31 03:54:01;;;;;;;28.55;19.23;;;;;;;18.19;80.35;99562.28;1784194;80;21568;-71
2021/08/31 03:56:28;;;;;;;30.65;22.17;;;;;;;18.19;80.49;99568.45;1784174;80;21051;-71
2021/08/31 03:58:54;;;;;;;30.50;21.25;;;;;;;18.17;80.50;99569.67;1779265;80;21737;-72
2021/08/31 04:01:21;;;;;;;28.42;20.95;;;;;;;18.16;80.54;99568.84;1770961;80;21027;-72
2021/08/31 04:03:48;;;;;;;23.47;17.45;;;;;;;18.11;80.58;99567.23;1772872;80;20933;-72
2021/08/31 04:06:15;;;;;;;29.25;21.85;;;;;;;18.07;80.69;99564.63;1763380;80;21004;-71
2021/08/31 04:08:42;;;;;;;32.05;20.35;;;;;;;18.08;80.69;99576.15;1775775;80;20996;-72
2021/08/31 04:11:09;;;;;;;28.87;21.20;;;;;;;18.06;80.77;99569.66;1756473;79;21927;-72
2021/08/31 04:13:36;;;;;;;31.48;19.32;;;;;;;18.07;80.71;99566.48;1768508;80;21149;-72
2021/08/31 04:16:03;;;;;;;32.53;21.00;;;;;;;18.05;80.77;99570.69;1768218;80;21059;-71
2021/08/31 04:18:32;;;;;;;24.45;18.85;;;;;;;18.03;80.82;99570.02;1765968;81;21594;-75
2021/08/31 04:21:01;;;;;;;29.23;20.08;;;;;;;18.03;80.86;99574.86;1768893;81;21537;-74
2021/08/31 04:23:28;;;;;;;26.33;19.80;;;;;;;18.06;80.86;99571.00;1773237;80;21732;-75
2021/08/31 04:25:55;;;;;;;24.15;18.67;;;;;;;18.11;80.85;99571.23;1766953;81;21054;-77
2021/08/31 04:28:22;;;;;;;26.97;19.50;;;;;;;18.13;80.83;99572.38;1768200;81;21004;-78
2021/08/31 04:30:49;;;;;;;26.05;19.52;;;;;;;18.17;80.78;99579.02;1767907;81;20960;-76
2021/08/31 04:33:16;;;;;;;28.92;20.27;;;;;;;18.20;80.75;99580.80;1771542;80;21419;-76
2021/08/31 04:35:44;;;;;;;29.07;19.85;;;;;;;18.22;80.62;99581.42;1768171;81;21803;-76
2021/08/31 04:38:11;;;;;;;31.02;20.72;;;;;;;18.24;80.51;99583.42;1768403;81;21058;-75
2021/08/31 04:40:38;;;;;;;26.12;19.65;;;;;;;18.20;80.43;99575.45;1769716;80;21028;-73
2021/08/31 04:43:06;;;;;;;28.60;19.80;;;;;;;18.21;80.42;99584.30;1773534;80;21035;-74
2021/08/31 04:45:34;;;;;;;27.05;19.73;;;;;;;18.21;80.37;99580.28;1771589;81;21169;-74
2021/08/31 04:48:01;;;;;;;25.95;18.65;;;;;;;18.20;80.34;99580.80;1770992;79;21801;-74
2021/08/31 04:50:28;;;;;;;24.57;18.15;;;;;;;18.19;80.28;99574.31;1770473;80;21396;-73
2021/08/31 04:52:56;;;;;;;24.92;18.17;;;;;;;18.19;80.26;99576.98;1752633;81;21415;-74
2021/08/31 04:55:24;;;;;;;27.05;18.85;;;;;;;18.19;80.24;99577.80;1780934;79;21406;-75
2021/08/31 04:57:50;;;;;;;26.05;17.57;;;;;;;18.21;80.23;99586.45;1757059;81;20995;-74
2021/08/31 05:00:17;;;;;;;26.75;17.95;;;;;;;18.22;80.12;99581.42;1770370;81;21712;-74
2021/08/31 05:02:44;;;;;;;19.57;15.45;;;;;;;18.23;80.11;99579.58;1770247;81;21423;-73
2021/08/31 05:05:10;;;;;;;23.12;17.23;;;;;;;18.24;80.12;99583.94;1770172;81;21008;-73
2021/08/31 05:07:39;;;;;;;21.90;16.85;;;;;;;18.23;79.99;99581.73;1771426;81;21451;-71
2021/08/31 05:10:08;;;;;;;21.20;16.48;;;;;;;18.25;79.94;99578.39;1770791;79;21034;-71
2021/08/31 05:12:35;;;;;;;22.00;16.95;;;;;;;18.25;79.77;99581.06;1784620;79;21777;-71
2021/08/31 05:15:02;;;;;;;21.12;17.15;;;;;;;18.26;79.68;99580.05;1789279;79;21051;-70
2021/08/31 05:17:28;;;;;;;20.70;16.20;;;;;;;18.30;79.55;99580.48;1770406;80;20976;-71
2021/08/31 05:19:58;;;;;;;21.10;16.48;;;;;;;18.33;79.47;99581.42;1793194;79;21004;-71
2021/08/31 05:22:26;;;;;;;21.30;15.85;;;;;;;18.36;79.29;99582.91;1743172;79;21090;-70
2021/08/31 05:24:54;;;;;;;22.98;16.48;;;;;;;18.38;79.02;99589.71;1780447;80;21833;-72
2021/08/31 05:27:22;;;;;;;20.35;14.73;;;;;;;18.38;78.96;99585.70;1812908;79;21155;-74
2021/08/31 05:29:50;;;;;;;20.82;15.93;;;;;;;18.37;78.86;99577.88;1812654;79;21064;-74
2021/08/31 05:32:17;;;;;;;17.17;13.70;;;;;;;18.38;78.84;99580.36;1790931;79;20997;-75
2021/08/31 05:34:45;;;;;;;19.05;15.95;;;;;;;18.43;78.78;99581.95;1760555;81;21122;-73
2021/08/31 05:37:11;;;;;;;19.17;15.53;;;;;;;18.44;78.45;99590.30;1792516;80;22249;-72
2021/08/31 05:39:38;;;;;;;17.85;15.63;;;;;;;18.42;78.42;99588.30;1763990;81;20941;-72
2021/08/31 05:42:07;;;;;;;20.27;16.30;;;;;;;18.46;78.41;99582.08;1737589;81;21052;-73
2021/08/31 05:44:35;;;;;;;18.17;15.18;;;;;;;18.47;78.19;99575.70;1763888;81;21032;-71
2021/08/31 05:47:02;;;;;;;16.48;14.20;;;;;;;18.48;78.03;99579.52;1792162;80;21027;-73
2021/08/31 05:49:30;;;;;;;18.35;14.58;;;;;;;18.49;77.85;99581.17;1791274;80;21835;-73
2021/08/31 05:51:59;;;;;;;19.52;15.78;;;;;;;18.53;77.85;99582.97;1781954;80;20927;-76
2021/08/31 05:54:26;;;;;;;18.48;15.38;;;;;;;18.55;77.72;99583.09;1787385;79;20993;-76
2021/08/31 05:56:54;;;;;;;19.00;15.25;;;;;;;18.59;77.51;99578.17;1761079;80;21004;-74
2021/08/31 05:59:20;;;;;;;16.17;14.47;;;;;;;18.63;77.34;99587.48;1793597;79;20980;-75
2021/08/31 06:01:48;;;;;;;18.70;15.15;;;;;;;18.64;77.11;99579.77;1764601;80;21836;-72
2021/08/31 06:04:15;;;;;;;16.62;14.38;;;;;;;18.66;76.82;99580.43;1789992;80;21463;-77
2021/08/31 06:06:42;;;;;;;17.80;13.98;;;;;;;18.68;76.75;99583.73;1778907;80;21040;-80
2021/08/31 06:09:08;;;;;;;19.15;14.20;;;;;;;18.75;76.77;99580.61;1779181;80;21000;-72
2021/08/31 06:11:39;;;;;;;17.32;14.63;;;;;;;18.80;76.69;99580.84;1779083;80;21439;-75
2021/08/31 06:14:07;;;;;;;18.17;16.02;;;;;;;18.84;76.47;99586.14;1778861;80;22622;-78
2021/08/31 06:16:33;;;;;;;17.98;16.07;;;;;;;18.89;76.20;99594.90;1788404;80;21015;-80
2021/08/31 06:19:00;;;;;;;17.65;15.30;;;;;;;18.96;76.18;99590.44;1789637;80;20944;-78
2021/08/31 06:21:27;;;;;;;23.25;18.00;;;;;;;19.03;75.82;99603.36;1789166;80;21009;-78
2021/08/31 06:23:54;;;;;;;21.87;19.10;;;;;;;19.06;75.32;99594.93;1778805;80;20976;-77
2021/08/31 06:26:20;;;;;;;20.27;17.27;;;;;;;19.08;74.72;99595.55;1765737;81;21753;-75
2021/08/31 06:28:46;;;;;;;25.02;17.25;;;;;;;19.20;74.94;99596.34;1811840;79;21420;-75
2021/08/31 06:31:13;;;;;;;20.92;18.42;;;;;;;19.33;74.69;99603.96;1785491;80;21035;-77
2021/08/31 06:33:40;;;;;;;17.52;15.72;;;;;;;19.43;74.36;99604.94;1754460;81;20991;-76
2021/08/31 06:36:07;;;;;;;17.30;15.45;;;;;;;19.51;73.92;99603.95;1778193;80;20949;-76
2021/08/31 06:38:33;;;;;;;18.07;14.30;;;;;;;19.58;73.29;99613.69;1806581;79;22180;-76
2021/08/31 06:40:59;;;;;;;13.83;12.33;;;;;;;19.63;72.22;99610.44;1806605;79;20914;-77
2021/08/31 06:43:26;;;;;;;17.40;13.10;;;;;;;19.66;71.97;99612.19;1800026;78;21035;-75
2021/08/31 06:45:52;;;;;;;14.50;12.23;;;;;;;19.67;71.49;99623.73;1779239;79;20997;-77
2021/08/31 06:48:19;;;;;;;13.32;11.12;;;;;;;19.73;71.21;99633.15;1779387;80;21404;-73
2021/08/31 06:50:45;;;;;;;13.53;11.08;;;;;;;19.79;70.44;99626.70;1813745;79;22563;-73
2021/08/31 06:53:11;;;;;;;13.70;10.20;;;;;;;19.86;69.95;99622.16;1806527;79;21454;-74
2021/08/31 06:55:41;;;;;;;11.12;9.90;;;;;;;19.92;69.54;99624.05;1810145;78;21421;-74
2021/08/31 06:58:08;;;;;;;12.73;10.43;;;;;;;20.00;69.14;99627.39;1780460;79;21028;-73
2021/08/31 07:00:35;;;;;;;13.65;10.45;;;;;;;20.10;69.35;99637.73;1774554;80;21087;-74
2021/08/31 07:03:02;;;;;;;12.07;9.53;;;;;;;20.17;68.89;99635.05;1762750;80;21877;-73
2021/08/31 07:05:29;;;;;;;12.18;9.90;;;;;;;20.21;68.57;99625.08;1810109;78;20920;-72
2021/08/31 07:07:55;;;;;;;10.20;8.78;;;;;;;20.21;68.00;99632.30;1784321;79;21016;-74
2021/08/31 07:10:22;;;;;;;9.00;8.10;;;;;;;20.25;68.06;99637.04;1796274;79;21025;-77
2021/08/31 07:12:49;;;;;;;10.13;8.88;;;;;;;20.33;67.61;99638.72;1795469;79;21040;-76
2021/08/31 07:15:16;;;;;;;9.03;7.47;;;;;;;20.38;66.92;99636.78;1768726;80;21816;-75
2021/08/31 07:17:42;;;;;;;8.58;7.20;;;;;;;20.47;66.84;99639.62;1755935;80;21035;-72
2021/08/31 07:20:11;;;;;;;10.82;7.30;;;;;;;20.53;65.68;99645.49;1778698;78;21004;-75
2021/08/31 07:22:39;;;;;;;7.42;5.90;;;;;;;20.58;64.76;99647.89;1794839;79;21487;-75
2021/08/31 07:25:08;;;;;;;6.53;5.55;;;;;;;20.63;63.88;99655.31;1803187;79;21003;-74
2021/08/31 07:27:34;;;;;;;5.87;5.28;;;;;;;20.66;62.95;99649.55;1787141;80;21795;-74
2021/08/31 07:30:01;;;;;;;8.43;6.00;;;;;;;20.76;62.98;99648.63;1788738;80;21534;-73
2021/08/31 07:32:27;;;;;;;7.12;5.35;;;;;;;20.83;61.88;99656.15;1788150;79;21043;-71
2021/08/31 07:35:15;;;;;;;9.30;5.17;;;;;;;20.86;61.47;99657.62;1790420;79;21006;-72
2021/08/31 07:37:42;;;;;;;6.45;4.55;;;;;;;20.95;61.36;99655.05;1778871;80;21044;-76
2021/08/31 07:40:10;;;;;;;7.03;5.03;;;;;;;21.06;59.96;99660.30;1784006;80;21648;-75
2021/08/31 07:42:36;;;;;;;7.12;4.75;;;;;;;21.12;59.43;99660.28;1813415;79;21027;-73
2021/08/31 07:45:07;;;;;;;5.70;4.60;;;;;;;21.16;58.68;99655.34;1787080;79;21001;-76
2021/08/31 07:47:33;;;;;;;5.03;4.53;;;;;;;21.19;58.63;99659.46;1814803;79;20997;-75
2021/08/31 07:50:00;;;;;;;5.70;4.42;;;;;;;21.27;58.26;99655.25;1815161;79;20866;-73
2021/08/31 07:52:26;;;;;;;4.97;4.28;;;;;;;21.33;58.14;99657.12;1815562;79;22208;-72
2021/08/31 07:54:53;;;;;;;5.97;4.50;;;;;;;21.40;58.42;99665.45;1815327;79;20976;-71
2021/08/31 07:57:19;;;;;;;6.37;4.60;;;;;;;21.51;57.14;99648.38;1807017;79;20920;-71
2021/08/31 07:59:46;;;;;;;5.35;4.35;;;;;;;21.57;56.22;99657.78;1797742;80;20992;-71
2021/08/31 08:02:14;;;;;;;5.40;4.53;;;;;;;21.62;56.29;99659.33;1798661;80;20983;-72
2021/08/31 08:04:40;;;;;;;10.72;4.47;;;;;;;21.70;56.85;99655.04;1758439;81;21818;-72
2021/08/31 08:07:07;;;;;;;5.40;4.00;;;;;;;21.81;55.53;99660.31;1769396;80;20937;-71
2021/08/31 08:09:34;;;;;;;6.90;4.10;;;;;;;21.89;54.57;99662.73;1798522;80;20963;-72
2021/08/31 08:12:00;;;;;;;4.20;3.80;;;;;;;21.96;55.09;99656.00;1798130;80;20945;-71
2021/08/31 08:14:29;;;;;;;3.85;3.42;;;;;;;21.99;53.35;99656.38;1766241;79;20940;-71
2021/08/31 08:16:55;;;;;;;4.35;3.55;;;;;;;22.02;53.08;99659.19;1763170;81;22187;-72
2021/08/31 08:19:21;;;;;;;6.25;3.72;;;;;;;22.04;53.73;99653.59;1795152;80;21064;-71
2021/08/31 08:21:48;;;;;;;3.77;3.27;;;;;;;22.14;53.74;99651.30;1796364;80;20993;-70
2021/08/31 08:24:14;;;;;;;3.40;3.00;;;;;;;22.24;52.93;99653.00;1763189;81;21036;-71
2021/08/31 08:26:41;;;;;;;3.27;2.77;;;;;;;22.33;51.66;99649.55;1795129;80;20936;-71
2021/08/31 08:29:07;;;;;;;7.42;2.50;;;;;;;22.40;50.89;99659.23;1788323;80;21727;-71
2021/08/31 08:31:33;;;;;;;3.52;2.50;;;;;;;22.44;49.79;99656.92;1758074;80;20988;-75
2021/08/31 08:34:01;;;;;;;5.87;2.65;;;;;;;22.47;49.43;99659.17;1795923;80;21072;-73
2021/08/31 08:36:27;;;;;;;4.35;2.60;;;;;;;22.49;49.72;99655.77;1795282;79;21074;-75
2021/08/31 08:38:54;;;;;;;3.67;2.35;;;;;;;22.53;49.88;99662.36;1755703;81;21044;-74
2021/08/31 08:41:20;;;;;;;4.37;3.00;;;;;;;22.62;49.56;99661.06;1796479;80;22206;-72
2021/08/31 08:43:47;;;;;;;4.10;2.60;;;;;;;22.68;49.96;99660.20;1796001;79;21000;-72
2021/08/31 08:46:14;;;;;;;3.20;2.75;;;;;;;22.77;50.30;99660.20;1759897;80;20991;-71
2021/08/31 08:48:40;;;;;;;4.20;2.58;;;;;;;22.86;49.82;99655.41;1708132;81;20984;-71
2021/08/31 08:51:07;;;;;;;4.65;2.77;;;;;;;22.95;49.90;99657.31;1771714;79;20949;-70
2021/08/31 08:53:34;;;;;;;5.03;2.52;;;;;;;23.02;48.97;99656.75;1779286;80;21478;-71
2021/08/31 08:56:01;;;;;;;2.98;2.62;;;;;;;23.06;49.50;99661.98;1771009;81;20854;-71
2021/08/31 08:58:28;;;;;;;3.87;2.62;;;;;;;23.16;49.35;99661.48;1770929;81;20940;-71
2021/08/31 09:01:05;;;;;;;4.28;2.50;;;;;;;23.24;48.67;99670.64;1770888;81;21007;-71
2021/08/31 09:03:34;;;;;;;3.80;2.58;;;;;;;23.30;49.15;99671.11;1770934;80;21070;-71
2021/08/31 09:06:16;;;;;;;3.77;2.70;;;;;;;23.36;49.00;99668.36;1766240;80;22500;-71
2021/08/31 09:09:00;;;;;;;2.98;2.50;;;;;;;23.46;47.99;99677.29;1740796;81;21110;-71
2021/08/31 09:11:37;;;;;;;4.08;2.30;;;;;;;23.49;47.21;99678.70;1753278;80;21090;-71
2021/08/31 09:14:30;;;;;;;3.22;2.20;;;;;;;23.39;46.41;99684.61;1770899;81;21056;-72
2021/08/31 09:17:04;;;;;;;2.92;2.22;;;;;;;23.34;46.51;99669.61;1771066;80;20924;-72
2021/08/31 09:19:38;;;;;;;3.05;2.10;;;;;;;23.36;46.38;99676.45;1770803;81;21821;-72
2021/08/31 09:22:21;;;;;;;4.00;2.27;;;;;;;23.44;46.24;99678.01;1771158;80;21039;-72
2021/08/31 09:25:04;;;;;;;2.37;2.08;;;;;;;23.51;46.95;99676.08;1770885;81;21500;-72
2021/08/31 09:27:39;;;;;;;2.63;2.20;;;;;;;23.56;45.90;99674.91;1734619;81;20936;-72
2021/08/31 09:30:22;;;;;;;2.25;2.05;;;;;;;23.62;46.35;99670.50;1764038;81;20991;-72
2021/08/31 09:33:19;;;;;;;3.10;2.07;;;;;;;23.79;46.08;99670.22;1763297;80;21830;-72
2021/08/31 09:35:44;;;;;;;4.62;2.10;;;;;;;23.89;45.05;99673.73;1776584;79;20924;-72
2021/08/31 09:38:17;;;;;;;3.40;2.02;;;;;;;23.93;45.20;99667.68;1784978;80;20957;-72
2021/08/31 09:40:50;;;;;;;2.60;2.10;;;;;;;24.07;45.15;99675.59;1759197;80;21006;-72
2021/08/31 09:43:18;;;;;;;;;;;;;;;24.20;44.67;99673.54;1791294;80;20937;-72
2021/08/31 09:45:46;;;;;;;3.27;1.90;;;;;;;24.25;44.21;99672.87;1783993;80;22663;-72
2021/08/31 09:48:15;;;;;;;4.22;1.98;;;;;;;24.35;44.07;99673.71;1756687;81;20992;-72
2021/08/31 09:50:46;;;;;;;2.47;1.90;;;;;;;24.45;43.73;99676.16;1756908;81;21052;-73
2021/08/31 09:53:25;;;;;;;2.47;1.98;;;;;;;24.57;42.93;99671.31;1755468;81;21072;-72
2021/08/31 09:56:06;;;;;;;2.40;1.75;;;;;;;24.65;42.58;99677.22;1758634;81;21035;-73
2021/08/31 09:58:36;;;;;;;2.10;1.80;;;;;;;24.75;42.58;99672.08;1732308;82;21810;-72
2021/08/31 10:01:02;;;;;;;2.58;1.77;;;;;;;24.84;42.31;99682.02;1732191;81;21047;-74
2021/08/31 10:03:29;;;;;;;2.10;1.80;;;;;;;24.83;41.79;99679.03;1732410;81;21110;-71
2021/08/31 10:05:59;;;;;;;2.20;2.00;;;;;;;24.81;42.13;99681.14;1760743;80;21436;-75
2021/08/31 10:08:28;;;;;;;2.40;1.70;;;;;;;24.91;41.60;99674.64;1762592;81;21008;-72
2021/08/31 10:10:56;;;;;;;3.95;1.80;;;;;;;25.09;41.37;99677.79;1762595;81;22265;-70
2021/08/31 10:13:24;;;;;;;1.60;1.50;;;;;;;25.24;40.94;99678.70;1784495;80;21114;-71
2021/08/31 10:15:58;;;;;;;2.10;1.60;;;;;;;25.32;40.61;99675.65;1785602;80;20992;-74
2021/08/31 10:18:27;;;;;;;2.80;1.35;;;;;;;25.40;39.96;99676.66;1785136;80;20984;-73
2021/08/31 10:21:08;;;;;;;2.55;1.80;;;;;;;25.50;40.11;99678.77;1779759;80;20985;-73
2021/08/31 10:23:37;;;;;;;3.98;1.57;;;;;;;25.50;40.29;99690.41;1734684;81;22288;-73
2021/08/31 10:26:27;;;;;;;2.12;1.70;;;;;;;25.50;39.61;99687.70;1734689;82;21063;-73
2021/08/31 10:29:18;;;;;;;2.27;1.72;;;;;;;25.47;39.54;99685.45;1716142;80;20988;-72
2021/08/31 10:31:46;;;;;;;2.75;1.87;;;;;;;25.45;39.83;99688.09;1754373;81;21011;-72
2021/08/31 10:34:39;;;;;;;1.72;1.62;;;;;;;25.58;40.08;99681.94;1764184;81;21012;-71
2021/08/31 10:37:14;;;;;;;2.60;1.62;;;;;;;25.78;40.22;99688.35;1764505;81;21845;-71
2021/08/31 10:39:55;;;;;;;2.35;1.60;;;;;;;25.84;40.39;99696.03;1764091;81;21451;-71
2021/08/31 10:42:30;;;;;;;2.08;1.65;;;;;;;25.62;38.96;99689.03;1764414;81;21036;-71
2021/08/31 10:45:06;;;;;;;1.40;1.30;;;;;;;25.28;39.74;99694.20;1728275;81;20976;-73
2021/08/31 10:47:34;;;;;;;1.60;1.40;;;;;;;25.26;40.05;99696.84;1718838;81;21036;-72
2021/08/31 10:50:08;;;;;;;4.85;1.60;;;;;;;25.47;40.99;99696.26;1764209;81;22698;-71
2021/08/31 10:52:42;;;;;;;2.02;1.60;;;;;;;25.89;40.34;99701.56;1764074;81;20988;-72
2021/08/31 10:55:29;;;;;;;1.90;1.60;;;;;;;26.21;39.47;99699.23;1764194;81;20948;-72
2021/08/31 10:58:09;;;;;;;1.95;1.72;;;;;;;26.45;38.87;99708.15;1764490;81;20972;-72
2021/08/31 11:00:46;;;;;;;3.72;1.80;;;;;;;26.65;37.51;99688.73;1764225;81;21494;-72
2021/08/31 11:03:16;;;;;;;2.62;1.65;;;;;;;26.73;37.36;99706.78;1764449;81;21679;-72
2021/08/31 11:05:43;;;;;;;4.08;1.90;;;;;;;26.79;36.77;99705.78;1716381;81;20988;-72
2021/08/31 11:08:13;;;;;;;2.42;1.80;;;;;;;26.72;37.74;99720.01;1765846;81;21430;-72
2021/08/31 11:10:42;;;;;;;2.17;1.98;;;;;;;26.60;37.31;99717.08;1765780;81;21203;-72
2021/08/31 11:13:16;;;;;;;3.50;1.85;;;;;;;26.49;38.39;99714.17;1766085;81;20952;-72
2021/08/31 11:15:46;;;;;;;1.65;1.55;;;;;;;26.50;38.05;99717.17;1765796;81;21889;-72
2021/08/31 11:18:15;;;;;;;1.70;1.60;;;;;;;26.60;36.99;99711.13;1764950;81;21067;-72
2021/08/31 11:20:45;;;;;;;1.82;1.60;;;;;;;26.79;37.75;99711.73;1764414;81;22142;-73
2021/08/31 11:23:19;;;;;;;2.37;1.60;;;;;;;27.04;36.17;99723.06;1764825;81;21087;-73
2021/08/31 11:25:54;;;;;;;2.22;1.60;;;;;;;27.21;36.40;99719.52;1764545;81;21470;-73
2021/08/31 11:28:26;;;;;;;1.85;1.70;;;;;;;27.27;35.96;99720.72;1764632;81;22418;-72
2021/08/31 11:31:01;;;;;;;1.65;1.55;;;;;;;27.38;37.34;99724.41;1732291;81;21003;-73